createdAt,value
2023-02-27T00:01:21.470Z,31.65
2023-02-27T00:03:51.503Z,28.05
2023-02-27T00:06:19.707Z,28.38
2023-02-27T00:08:48.679Z,30.58
2023-02-27T00:11:17.520Z,26.50
2023-02-27T00:13:47.143Z,29.63
2023-02-27T00:16:20.131Z,35.05
2023-02-27T00:18:50.962Z,28.65
2023-02-27T00:21:21.851Z,28.30
2023-02-27T00:23:52.745Z,30.40
2023-02-27T00:26:25.475Z,23.48
2023-02-27T00:28:54.374Z,28.65
2023-02-27T00:31:23.774Z,26.23
2023-02-27T00:33:52.402Z,29.88
2023-02-27T00:36:22.938Z,30.15
2023-02-27T00:38:52.817Z,29.65
2023-02-27T00:41:23.741Z,33.53
2023-02-27T00:43:53.553Z,27.42
2023-02-27T00:46:23.717Z,30.70
2023-02-27T00:48:55.201Z,33.78
2023-02-27T00:51:25.806Z,32.05
2023-02-27T00:53:55.278Z,31.35
2023-02-27T00:56:28.108Z,30.65
2023-02-27T00:58:57.653Z,31.48
2023-02-27T01:01:25.999Z,28.30
2023-02-27T01:03:54.496Z,34.20
2023-02-27T01:06:22.855Z,27.02
2023-02-27T01:08:50.758Z,27.45
2023-02-27T01:11:23.359Z,33.00
2023-02-27T01:13:51.975Z,33.28
2023-02-27T01:16:19.981Z,34.30
2023-02-27T01:18:49.208Z,35.15
2023-02-27T01:21:17.547Z,31.45
2023-02-27T01:23:51.392Z,32.03
2023-02-27T01:26:20.793Z,32.92
2023-02-27T01:28:49.592Z,34.53
2023-02-27T01:31:17.704Z,37.78
2023-02-27T01:33:46.134Z,29.30
2023-02-27T01:36:14.251Z,33.92
2023-02-27T01:38:46.552Z,30.33
2023-02-27T01:41:16.500Z,27.08
2023-02-27T01:44:04.637Z,31.58
2023-02-27T01:46:33.648Z,31.55
2023-02-27T01:49:16.961Z,24.45
2023-02-27T01:51:51.648Z,27.17
2023-02-27T01:54:21.867Z,28.00
2023-02-27T01:56:53.436Z,30.52
2023-02-27T01:59:21.881Z,28.90
2023-02-27T02:01:51.492Z,28.80
2023-02-27T02:04:33.797Z,30.73
2023-02-27T02:07:07.425Z,30.90
2023-02-27T02:09:56.003Z,25.40
2023-02-27T02:12:32.169Z,29.50
2023-02-27T02:15:00.283Z,31.23
2023-02-27T02:17:41.361Z,28.48
2023-02-27T02:20:37.277Z,28.83
2023-02-27T02:23:26.478Z,35.20
2023-02-27T02:26:15.345Z,35.80
2023-02-27T02:29:06.124Z,28.08
2023-02-27T02:31:55.834Z,31.83
2023-02-27T02:34:50.463Z,30.27
2023-02-27T02:38:01.428Z,33.15
2023-02-27T02:40:36.237Z,34.00
2023-02-27T02:43:31.165Z,32.50
2023-02-27T02:46:08.378Z,28.88
2023-02-27T02:48:40.407Z,32.33
2023-02-27T02:51:22.968Z,32.13
2023-02-27T02:54:02.445Z,30.38
2023-02-27T02:56:57.904Z,32.45
2023-02-27T02:59:42.432Z,39.17
2023-02-27T03:02:16.565Z,34.50
2023-02-27T03:04:52.046Z,36.08
2023-02-27T03:07:36.377Z,35.88
2023-02-27T03:10:17.930Z,28.90
2023-02-27T03:12:52.270Z,24.63
2023-02-27T03:15:23.884Z,28.30
2023-02-27T03:18:07.356Z,28.77
2023-02-27T03:20:44.820Z,25.30
2023-02-27T03:23:23.765Z,28.15
2023-02-27T03:25:58.345Z,24.85
2023-02-27T03:28:31.605Z,29.38
2023-02-27T03:31:02.401Z,24.80
2023-02-27T03:33:39.756Z,27.55
2023-02-27T03:36:41.386Z,26.88
2023-02-27T03:39:41.318Z,24.20
2023-02-27T03:42:48.040Z,27.05
2023-02-27T03:45:43.435Z,30.83
2023-02-27T03:48:11.641Z,25.90
2023-02-27T03:50:39.742Z,30.63
2023-02-27T03:53:21.889Z,28.90
2023-02-27T03:55:50.033Z,27.33
2023-02-27T03:58:18.617Z,31.17
2023-02-27T04:01:06.452Z,32.97
2023-02-27T04:03:36.417Z,32.53
2023-02-27T04:06:28.452Z,35.22
2023-02-27T04:09:21.734Z,33.90
2023-02-27T04:12:11.097Z,37.53
2023-02-27T04:15:03.645Z,44.53
2023-02-27T04:17:32.713Z,45.67
2023-02-27T04:20:27.981Z,61.72
2023-02-27T04:23:05.641Z,52.42
2023-02-27T04:25:36.848Z,57.03
2023-02-27T04:28:17.500Z,63.03
2023-02-27T04:31:03.001Z,65.15
2023-02-27T04:33:48.090Z,62.40
2023-02-27T04:36:30.608Z,70.90
2023-02-27T04:39:09.480Z,71.25
2023-02-27T04:41:56.932Z,66.70
2023-02-27T04:44:25.271Z,68.47
2023-02-27T04:46:54.109Z,59.22
2023-02-27T04:49:42.553Z,64.80
2023-02-27T04:52:34.610Z,67.30
2023-02-27T04:55:13.940Z,60.58
2023-02-27T04:57:49.015Z,62.47
2023-02-27T05:00:20.147Z,67.53
2023-02-27T05:02:53.411Z,61.20
2023-02-27T05:05:24.574Z,51.97
2023-02-27T05:08:00.091Z,69.07
2023-02-27T05:10:36.635Z,65.85
2023-02-27T05:13:33.874Z,65.53
2023-02-27T05:16:23.440Z,77.60
2023-02-27T05:18:56.320Z,65.68
2023-02-27T05:21:36.887Z,75.03
2023-02-27T05:24:35.413Z,76.13
2023-02-27T05:27:16.060Z,85.10
2023-02-27T05:30:06.746Z,66.95
2023-02-27T05:32:58.194Z,80.40
2023-02-27T05:35:33.211Z,76.47
2023-02-27T05:38:06.035Z,84.18
2023-02-27T05:40:50.297Z,80.45
2023-02-27T05:43:27.902Z,85.38
2023-02-27T05:46:10.214Z,84.50
2023-02-27T05:48:46.646Z,91.07
2023-02-27T05:51:15.265Z,86.82
2023-02-27T05:53:46.552Z,95.93
2023-02-27T05:56:14.839Z,100.07
2023-02-27T05:58:54.541Z,94.57
2023-02-27T06:01:24.733Z,79.53
2023-02-27T06:03:54.408Z,82.53
2023-02-27T06:06:22.472Z,82.25
2023-02-27T06:08:50.485Z,75.18
2023-02-27T06:11:25.878Z,76.85
2023-02-27T06:13:55.032Z,82.45
2023-02-27T06:16:23.654Z,85.90
2023-02-27T06:18:52.029Z,83.10
2023-02-27T06:21:20.148Z,72.63
2023-02-27T06:23:51.055Z,75.10
2023-02-27T06:26:19.975Z,75.47
2023-02-27T06:28:48.013Z,82.13
2023-02-27T06:31:17.014Z,86.65
2023-02-27T06:33:44.928Z,93.13
2023-02-27T06:36:13.086Z,89.60
2023-02-27T06:38:41.797Z,99.43
2023-02-27T06:41:09.939Z,83.32
2023-02-27T06:43:38.671Z,94.63
2023-02-27T06:46:09.717Z,70.35
2023-02-27T06:48:38.450Z,81.35
2023-02-27T06:51:06.414Z,75.45
2023-02-27T06:53:34.679Z,66.70
2023-02-27T06:56:02.694Z,53.08
2023-02-27T06:58:31.830Z,45.55
2023-02-27T07:01:01.132Z,49.53
2023-02-27T07:03:29.240Z,49.33
2023-02-27T07:05:59.001Z,36.10
2023-02-27T07:08:28.596Z,44.35
2023-02-27T07:10:57.699Z,57.22
2023-02-27T07:13:28.223Z,46.97
2023-02-27T07:15:56.794Z,38.25
2023-02-27T07:18:26.370Z,51.38
2023-02-27T07:20:56.994Z,39.45
2023-02-27T07:23:25.490Z,48.35
2023-02-27T07:25:54.352Z,49.47
2023-02-27T07:28:22.454Z,47.25
2023-02-27T07:30:53.335Z,56.47
2023-02-27T07:33:23.990Z,46.65
2023-02-27T07:35:52.328Z,51.28
2023-02-27T07:38:22.544Z,55.63
2023-02-27T07:40:50.652Z,82.72
2023-02-27T07:43:19.262Z,58.55
2023-02-27T07:45:47.355Z,87.30
2023-02-27T07:48:16.436Z,47.88
2023-02-27T07:50:44.639Z,44.17
2023-02-27T07:53:13.566Z,62.30
2023-02-27T07:55:42.235Z,50.95
2023-02-27T07:58:11.899Z,46.33
2023-02-27T08:00:42.785Z,48.28
2023-02-27T08:03:10.930Z,47.25
2023-02-27T08:05:41.990Z,48.58
2023-02-27T08:08:11.586Z,50.30
2023-02-27T08:10:42.553Z,43.90
2023-02-27T08:13:11.183Z,52.88
2023-02-27T08:15:39.081Z,47.08
2023-02-27T08:18:26.078Z,50.88
2023-02-27T08:20:56.649Z,55.58
2023-02-27T08:23:26.941Z,53.92
2023-02-27T08:25:57.997Z,54.47
2023-02-27T08:28:26.862Z,55.20
2023-02-27T08:30:55.303Z,50.35
2023-02-27T08:33:23.906Z,54.67
2023-02-27T08:35:52.190Z,48.03
2023-02-27T08:38:21.154Z,49.92
2023-02-27T08:40:56.265Z,45.65
2023-02-27T08:43:24.729Z,45.08
2023-02-27T08:45:54.909Z,43.15
2023-02-27T08:48:25.003Z,47.22
2023-02-27T08:50:56.233Z,44.72
2023-02-27T08:53:28.060Z,48.22
2023-02-27T08:55:57.010Z,45.90
2023-02-27T08:58:25.638Z,42.65
2023-02-27T09:00:55.950Z,51.03
2023-02-27T09:03:29.020Z,41.50
2023-02-27T09:05:58.101Z,55.65
2023-02-27T09:08:37.221Z,40.70
2023-02-27T09:11:09.304Z,44.63
2023-02-27T09:13:37.630Z,44.20
2023-02-27T09:16:09.659Z,44.00
2023-02-27T09:18:39.063Z,44.35
2023-02-27T09:21:08.083Z,49.90
2023-02-27T09:24:02.533Z,43.72
2023-02-27T09:26:45.891Z,35.67
2023-02-27T09:29:17.166Z,45.92
2023-02-27T09:31:47.267Z,49.65
2023-02-27T09:34:15.762Z,42.83
2023-02-27T09:36:44.117Z,43.78
2023-02-27T09:39:15.859Z,38.90
2023-02-27T09:41:56.352Z,44.90
2023-02-27T09:44:39.822Z,46.78
2023-02-27T09:47:18.392Z,45.28
2023-02-27T09:50:03.999Z,57.85
2023-02-27T09:52:34.168Z,49.00
2023-02-27T09:55:03.075Z,53.22
2023-02-27T09:57:50.340Z,44.47
2023-02-27T10:00:44.253Z,39.65
2023-02-27T10:03:13.313Z,39.45
2023-02-27T10:05:47.962Z,44.50
2023-02-27T10:08:46.799Z,55.10
2023-02-27T10:11:17.662Z,47.88
2023-02-27T10:14:19.004Z,52.90
2023-02-27T10:16:50.641Z,53.45
2023-02-27T10:19:47.147Z,48.20
2023-02-27T10:22:21.837Z,52.67
2023-02-27T10:25:03.699Z,48.35
2023-02-27T10:27:33.220Z,53.08
2023-02-27T10:30:29.554Z,65.63
2023-02-27T10:33:20.611Z,67.57
2023-02-27T10:35:53.864Z,73.38
2023-02-27T10:38:38.159Z,71.25
2023-02-27T10:41:11.586Z,65.93
2023-02-27T10:43:42.517Z,76.38
2023-02-27T10:46:18.397Z,66.70
2023-02-27T10:48:47.585Z,55.25
2023-02-27T10:51:28.729Z,58.72
2023-02-27T10:54:19.281Z,58.47
2023-02-27T10:56:53.893Z,54.22
2023-02-27T10:59:37.573Z,60.63
2023-02-27T11:02:17.951Z,49.33
2023-02-27T11:04:57.673Z,55.58
2023-02-27T11:07:58.192Z,56.05
2023-02-27T11:10:29.229Z,53.42
2023-02-27T11:13:07.484Z,68.20
2023-02-27T11:15:38.391Z,72.43
2023-02-27T11:21:03.509Z,59.70
2023-02-27T11:23:34.017Z,56.65
2023-02-27T11:26:24.282Z,56.15
2023-02-27T11:29:15.229Z,55.65
2023-02-27T11:31:51.337Z,56.22
2023-02-27T11:34:41.972Z,56.58
2023-02-27T11:37:30.456Z,56.50
2023-02-27T11:40:34.701Z,67.60
2023-02-27T11:43:05.477Z,58.35
2023-02-27T11:46:17.064Z,61.95
2023-02-27T11:48:33.204Z,52.90
2023-02-27T11:51:17.251Z,56.90
2023-02-27T11:53:56.639Z,52.20
2023-02-27T11:56:51.007Z,58.83
2023-02-27T11:59:33.149Z,51.30
2023-02-27T12:02:10.259Z,60.00
2023-02-27T12:04:45.122Z,61.55
2023-02-27T12:07:20.710Z,72.97
2023-02-27T12:10:02.620Z,62.13
2023-02-27T12:12:49.708Z,63.95
2023-02-27T12:15:18.281Z,65.22
2023-02-27T12:17:49.973Z,54.25
2023-02-27T12:20:43.716Z,62.80
2023-02-27T12:23:52.410Z,60.83
2023-02-27T12:26:30.910Z,62.92
2023-02-27T12:29:23.323Z,58.72
2023-02-27T12:32:14.933Z,56.47
2023-02-27T12:34:50.772Z,54.78
2023-02-27T12:37:28.129Z,56.83
2023-02-27T12:40:02.578Z,57.97
2023-02-27T12:42:52.737Z,49.75
2023-02-27T12:45:46.897Z,41.20
2023-02-27T12:48:52.576Z,52.47
2023-02-27T12:51:48.255Z,48.03
2023-02-27T12:54:24.271Z,48.88
2023-02-27T12:59:39.190Z,58.08
2023-02-27T13:02:22.286Z,48.28
2023-02-27T13:05:04.537Z,49.38
2023-02-27T13:07:59.343Z,52.70
2023-02-27T13:11:04.279Z,43.45
2023-02-27T13:13:47.959Z,57.78
2023-02-27T13:16:32.613Z,75.47
2023-02-27T13:19:16.329Z,51.80
2023-02-27T13:22:08.876Z,54.72
2023-02-27T13:24:47.936Z,46.13
2023-02-27T13:27:27.650Z,51.38
2023-02-27T13:30:05.428Z,50.38
2023-02-27T13:33:11.764Z,47.25
2023-02-27T13:35:52.270Z,54.63
2023-02-27T13:38:51.458Z,90.00
2023-02-27T13:41:27.929Z,50.70
2023-02-27T13:44:00.472Z,54.83
2023-02-27T13:46:33.210Z,51.38
2023-02-27T13:49:05.863Z,45.30
2023-02-27T13:51:35.502Z,64.70
2023-02-27T13:54:13.855Z,53.75
2023-02-27T13:56:49.977Z,51.90
2023-02-27T13:59:25.772Z,53.92
2023-02-27T14:02:13.895Z,51.72
2023-02-27T14:04:58.338Z,46.83
2023-02-27T14:07:48.704Z,48.03
2023-02-27T14:10:25.607Z,54.90
2023-02-27T14:12:55.637Z,41.08
2023-02-27T14:15:26.338Z,46.08
2023-02-27T14:18:12.392Z,54.13
2023-02-27T14:20:44.158Z,50.50
2023-02-27T14:23:27.881Z,43.83
2023-02-27T14:25:58.220Z,43.45
2023-02-27T14:28:31.040Z,52.40
2023-02-27T14:31:09.232Z,43.75
2023-02-27T14:33:54.252Z,39.90
2023-02-27T14:36:23.726Z,34.88
2023-02-27T14:38:57.603Z,35.00
2023-02-27T14:41:54.828Z,29.27
2023-02-27T14:44:28.160Z,28.00
2023-02-27T14:46:59.591Z,36.53
2023-02-27T14:49:34.257Z,34.55
2023-02-27T14:52:12.764Z,33.38
2023-02-27T14:54:45.027Z,33.80
2023-02-27T14:57:20.952Z,31.50
2023-02-27T14:59:52.592Z,33.97
2023-02-27T15:02:30.680Z,22.05
2023-02-27T15:05:01.723Z,29.17
2023-02-27T15:07:31.827Z,30.58
2023-02-27T15:10:04.345Z,27.23
2023-02-27T15:12:39.032Z,28.00
2023-02-27T15:15:08.063Z,32.20
2023-02-27T15:17:39.960Z,30.10
2023-02-27T15:20:38.194Z,29.38
2023-02-27T15:23:28.413Z,31.23
2023-02-27T15:26:01.035Z,29.80
2023-02-27T15:28:38.268Z,34.63
2023-02-27T15:31:06.346Z,28.45
2023-02-27T15:33:36.887Z,28.00
2023-02-27T15:36:05.647Z,31.58
2023-02-27T15:38:35.093Z,29.83
2023-02-27T15:41:04.244Z,23.48
2023-02-27T15:43:32.782Z,25.42
2023-02-27T15:46:04.176Z,26.40
2023-02-27T15:48:35.121Z,24.17
2023-02-27T15:51:05.748Z,21.58
2023-02-27T15:53:36.041Z,20.95
2023-02-27T15:56:09.921Z,18.08
2023-02-27T15:59:00.518Z,19.00
2023-02-27T16:01:32.876Z,21.65
2023-02-27T16:04:06.603Z,20.80
2023-02-27T16:06:39.754Z,18.90
2023-02-27T16:09:22.857Z,15.57
2023-02-27T16:12:22.877Z,17.10
2023-02-27T16:14:56.741Z,18.13
2023-02-27T16:17:29.688Z,20.60
2023-02-27T16:20:00.744Z,21.05
2023-02-27T16:22:31.768Z,15.88
2023-02-27T16:25:20.606Z,18.73
2023-02-27T16:27:48.897Z,16.65
2023-02-27T16:30:23.087Z,18.38
2023-02-27T16:33:00.318Z,16.88
2023-02-27T16:35:30.728Z,18.92
2023-02-27T16:38:01.473Z,15.23
2023-02-27T16:40:31.490Z,15.73
2023-02-27T16:43:02.210Z,15.93
2023-02-27T16:45:32.473Z,16.48
2023-02-27T16:48:01.821Z,18.05
2023-02-27T16:50:42.136Z,19.13
2023-02-27T16:53:12.089Z,16.15
2023-02-27T16:55:42.033Z,17.30
2023-02-27T16:58:19.072Z,18.25
2023-02-27T17:00:50.597Z,17.23
2023-02-27T17:03:18.802Z,16.60
2023-02-27T17:05:51.264Z,19.60
2023-02-27T17:08:19.776Z,18.02
2023-02-27T17:10:47.919Z,16.85
2023-02-27T17:13:17.668Z,18.27
2023-02-27T17:15:46.594Z,17.00
2023-02-27T17:18:16.307Z,16.27
2023-02-27T17:20:44.511Z,16.23
2023-02-27T17:23:14.470Z,17.58
2023-02-27T17:25:43.828Z,17.25
2023-02-27T17:28:13.531Z,15.70
2023-02-27T17:30:42.075Z,15.73
2023-02-27T17:33:12.817Z,14.43
2023-02-27T17:35:41.882Z,15.15
2023-02-27T17:38:10.603Z,21.73
2023-02-27T17:41:09.854Z,15.27
2023-02-27T17:43:42.779Z,17.27
2023-02-27T17:46:14.818Z,16.58
2023-02-27T17:48:46.200Z,21.75
2023-02-27T17:51:17.098Z,17.75
2023-02-27T17:53:55.095Z,19.70
2023-02-27T17:56:23.354Z,14.85
2023-02-27T17:58:51.587Z,14.88
2023-02-27T18:01:23.001Z,16.90
2023-02-27T18:03:54.032Z,16.35
2023-02-27T18:06:22.832Z,15.50
2023-02-27T18:08:52.172Z,15.05
2023-02-27T18:11:21.045Z,15.32
2023-02-27T18:13:50.710Z,12.32
2023-02-27T18:16:19.112Z,65.47
2023-02-27T18:18:53.657Z,13.93
2023-02-27T18:21:25.363Z,13.82
2023-02-27T18:24:02.806Z,15.88
2023-02-27T18:26:36.905Z,14.68
2023-02-27T18:29:09.600Z,15.63
2023-02-27T18:31:43.636Z,12.63
2023-02-27T18:34:12.152Z,12.80
2023-02-27T18:36:43.793Z,13.00
2023-02-27T18:39:11.701Z,15.85
2023-02-27T18:41:40.081Z,15.18
2023-02-27T18:44:09.359Z,17.23
2023-02-27T18:46:38.562Z,14.63
2023-02-27T18:49:06.806Z,16.00
2023-02-27T18:51:35.945Z,15.45
2023-02-27T18:54:19.012Z,12.93
2023-02-27T18:56:48.687Z,15.80
2023-02-27T18:59:25.013Z,16.30
2023-02-27T19:01:53.947Z,13.15
2023-02-27T19:04:33.639Z,20.48
2023-02-27T19:07:03.726Z,11.85
2023-02-27T19:09:33.169Z,10.48
2023-02-27T19:12:05.510Z,18.83
2023-02-27T19:14:33.939Z,12.95
2023-02-27T19:17:02.992Z,12.60
2023-02-27T19:19:32.732Z,11.60
2023-02-27T19:22:01.524Z,12.48
2023-02-27T19:24:30.594Z,11.75
2023-02-27T19:27:02.341Z,17.90
2023-02-27T19:29:40.369Z,14.13
2023-02-27T19:32:09.266Z,13.38
2023-02-27T19:34:38.202Z,15.50
2023-02-27T19:37:26.601Z,16.20
2023-02-27T19:39:54.494Z,16.10
2023-02-27T19:42:22.543Z,18.88
2023-02-27T19:44:52.635Z,15.90
2023-02-27T19:47:21.194Z,18.00
2023-02-27T19:49:52.512Z,16.40
2023-02-27T19:52:20.633Z,14.18
2023-02-27T19:54:50.225Z,14.77
2023-02-27T19:57:22.609Z,18.45
2023-02-27T19:59:51.182Z,15.15
2023-02-27T20:02:21.547Z,15.20
2023-02-27T20:04:52.178Z,18.50
2023-02-27T20:07:22.197Z,17.75
2023-02-27T20:09:51.749Z,14.95
2023-02-27T20:12:20.595Z,11.20
2023-02-27T20:14:53.962Z,11.25
2023-02-27T20:17:23.476Z,11.98
2023-02-27T20:19:51.739Z,10.98
2023-02-27T20:22:29.090Z,10.32
2023-02-27T20:24:57.774Z,11.40
2023-02-27T20:27:29.178Z,11.32
2023-02-27T20:29:58.265Z,10.77
2023-02-27T20:32:27.925Z,10.20
2023-02-27T20:34:59.544Z,12.55
2023-02-27T20:37:33.382Z,10.00
2023-02-27T20:40:08.491Z,11.00
2023-02-27T20:42:37.157Z,13.15
2023-02-27T20:45:06.393Z,13.00
2023-02-27T20:47:35.641Z,13.20
2023-02-27T20:50:03.479Z,14.98
2023-02-27T20:52:32.398Z,14.63
2023-02-27T20:55:00.776Z,17.73
2023-02-27T20:57:30.564Z,15.48
2023-02-27T20:59:58.715Z,19.42
2023-02-27T21:02:30.901Z,15.48
2023-02-27T21:04:59.699Z,16.58
2023-02-27T21:07:28.192Z,19.00
2023-02-27T21:09:56.775Z,17.10
2023-02-27T21:12:29.624Z,19.70
2023-02-27T21:14:58.616Z,17.77
2023-02-27T21:17:26.599Z,18.17
2023-02-27T21:19:57.418Z,20.70
2023-02-27T21:22:34.802Z,19.30
2023-02-27T21:25:03.063Z,20.08
2023-02-27T21:27:31.859Z,22.58
2023-02-27T21:30:00.026Z,24.60
2023-02-27T21:32:28.145Z,23.25
2023-02-27T21:34:56.889Z,22.90
2023-02-27T21:37:30.600Z,20.60
2023-02-27T21:40:00.921Z,19.23
2023-02-27T21:42:35.326Z,18.50
2023-02-27T21:45:05.807Z,18.23
2023-02-27T21:47:35.871Z,20.33
2023-02-27T21:50:04.824Z,24.75
2023-02-27T21:52:33.878Z,23.98
2023-02-27T21:55:04.669Z,23.05
2023-02-27T21:57:32.686Z,34.22
2023-02-27T22:00:00.750Z,34.60
2023-02-27T22:02:29.939Z,31.98
2023-02-27T22:04:58.934Z,32.25
2023-02-27T22:07:27.272Z,36.72
2023-02-27T22:10:01.324Z,42.75
2023-02-27T22:12:30.527Z,45.80
2023-02-27T22:14:59.107Z,44.28
2023-02-27T22:17:27.134Z,46.28
2023-02-27T22:19:55.899Z,43.17
2023-02-27T22:22:27.524Z,50.92
2023-02-27T22:24:56.727Z,47.03
2023-02-27T22:27:24.878Z,53.67
2023-02-27T22:29:53.157Z,51.55
2023-02-27T22:32:21.389Z,54.05
2023-02-27T22:34:50.159Z,55.78
2023-02-27T22:37:20.052Z,56.65
2023-02-27T22:39:48.955Z,57.25
2023-02-27T22:42:37.584Z,49.72
2023-02-27T22:45:28.182Z,54.08
2023-02-27T22:47:57.978Z,52.92
2023-02-27T22:50:26.456Z,51.70
2023-02-27T22:52:54.534Z,62.72
2023-02-27T22:55:25.989Z,51.80
2023-02-27T22:57:56.629Z,56.17
2023-02-27T23:00:25.202Z,45.22
2023-02-27T23:02:56.079Z,50.55
2023-02-27T23:05:26.461Z,51.40
2023-02-27T23:07:56.070Z,50.78
2023-02-27T23:10:26.080Z,55.03
2023-02-27T23:13:27.899Z,47.22
2023-02-27T23:15:59.357Z,54.95
2023-02-27T23:18:27.702Z,47.75
2023-02-27T23:21:03.327Z,48.28
2023-02-27T23:23:36.876Z,45.47
2023-02-27T23:26:06.769Z,44.58
2023-02-27T23:28:39.976Z,41.17
2023-02-27T23:31:09.685Z,48.90
2023-02-27T23:33:37.912Z,54.08
2023-02-27T23:36:07.428Z,57.42
2023-02-27T23:38:35.424Z,56.90
2023-02-27T23:41:16.904Z,57.60
2023-02-27T23:43:45.330Z,52.25
2023-02-27T23:46:15.494Z,55.17
2023-02-27T23:48:44.161Z,56.38
2023-02-27T23:51:17.924Z,59.35
2023-02-27T23:53:47.099Z,69.93
2023-02-27T23:56:29.564Z,69.70
2023-02-27T23:59:03.355Z,63.28
